sensor_id;sensor_type;location;lat;lon;timestamp;temperature;humidity
6496;DHT22;3281;47.658;9.166;2024-01-30T00:00:01;3.80;1.00
6496;DHT22;3281;47.658;9.166;2024-01-30T00:02:29;3.80;1.00
6496;DHT22;3281;47.658;9.166;2024-01-30T00:04:57;3.80;1.00
6496;DHT22;3281;47.658;9.166;2024-01-30T00:07:24;3.80;1.00
6496;DHT22;3281;47.658;9.166;2024-01-30T00:09:50;3.80;1.00
6496;DHT22;3281;47.658;9.166;2024-01-30T00:12:17;3.70;1.00
6496;DHT22;3281;47.658;9.166;2024-01-30T00:14:44;3.70;1.00
6496;DHT22;3281;47.658;9.166;2024-01-30T00:17:10;3.60;1.00
6496;DHT22;3281;47.658;9.166;2024-01-30T00:19:37;3.60;1.00
6496;DHT22;3281;47.658;9.166;2024-01-30T00:22:05;3.60;1.00
6496;DHT22;3281;47.658;9.166;2024-01-30T00:24:33;3.60;1.00
6496;DHT22;3281;47.658;9.166;2024-01-30T00:26:59;3.50;1.00
6496;DHT22;3281;47.658;9.166;2024-01-30T00:29:26;3.50;1.00
6496;DHT22;3281;47.658;9.166;2024-01-30T00:31:56;3.50;1.00
6496;DHT22;3281;47.658;9.166;2024-01-30T00:34:23;3.60;1.00
6496;DHT22;3281;47.658;9.166;2024-01-30T00:36:49;3.60;1.00
6496;DHT22;3281;47.658;9.166;2024-01-30T00:39:17;3.60;1.00
6496;DHT22;3281;47.658;9.166;2024-01-30T00:41:45;3.50;1.00
6496;DHT22;3281;47.658;9.166;2024-01-30T00:44:11;3.60;1.00
6496;DHT22;3281;47.658;9.166;2024-01-30T00:46:38;3.60;1.00
6496;DHT22;3281;47.658;9.166;2024-01-30T00:49:05;3.60;1.00
6496;DHT22;3281;47.658;9.166;2024-01-30T00:51:31;3.60;1.00
6496;DHT22;3281;47.658;9.166;2024-01-30T00:53:58;3.50;1.00
6496;DHT22;3281;47.658;9.166;2024-01-30T00:56:26;3.50;1.00
6496;DHT22;3281;47.658;9.166;2024-01-30T00:58:53;3.50;1.00
6496;DHT22;3281;47.658;9.166;2024-01-30T01:01:21;3.50;1.00
6496;DHT22;3281;47.658;9.166;2024-01-30T01:03:48;3.40;1.00
6496;DHT22;3281;47.658;9.166;2024-01-30T01:06:14;3.30;1.00
6496;DHT22;3281;47.658;9.166;2024-01-30T01:08:40;3.30;1.00
6496;DHT22;3281;47.658;9.166;2024-01-30T01:11:07;3.30;1.00
6496;DHT22;3281;47.658;9.166;2024-01-30T01:13:35;3.20;1.00
6496;DHT22;3281;47.658;9.166;2024-01-30T01:16:02;3.20;1.00
6496;DHT22;3281;47.658;9.166;2024-01-30T01:18:29;3.20;1.00
6496;DHT22;3281;47.658;9.166;2024-01-30T01:20:56;3.20;1.00
6496;DHT22;3281;47.658;9.166;2024-01-30T01:23:22;3.20;1.00
6496;DHT22;3281;47.658;9.166;2024-01-30T01:25:49;3.20;1.00
6496;DHT22;3281;47.658;9.166;2024-01-30T01:28:16;3.30;1.00
6496;DHT22;3281;47.658;9.166;2024-01-30T01:30:44;3.30;1.00
6496;DHT22;3281;47.658;9.166;2024-01-30T01:33:10;3.20;1.00
6496;DHT22;3281;47.658;9.166;2024-01-30T01:35:39;3.30;1.00
6496;DHT22;3281;47.658;9.166;2024-01-30T01:38:06;3.30;1.00
6496;DHT22;3281;47.658;9.166;2024-01-30T01:40:32;3.30;1.00
6496;DHT22;3281;47.658;9.166;2024-01-30T01:43:03;3.30;1.00
6496;DHT22;3281;47.658;9.166;2024-01-30T01:45:30;3.30;1.00
6496;DHT22;3281;47.658;9.166;2024-01-30T01:47:58;3.30;1.00
6496;DHT22;3281;47.658;9.166;2024-01-30T01:50:25;3.30;1.00
6496;DHT22;3281;47.658;9.166;2024-01-30T01:52:52;3.30;1.00
6496;DHT22;3281;47.658;9.166;2024-01-30T01:55:21;3.30;1.00
6496;DHT22;3281;47.658;9.166;2024-01-30T01:57:49;3.30;1.00
6496;DHT22;3281;47.658;9.166;2024-01-30T02:00:16;3.30;1.00
6496;DHT22;3281;47.658;9.166;2024-01-30T02:02:45;3.30;1.00
6496;DHT22;3281;47.658;9.166;2024-01-30T02:05:14;3.30;1.00
6496;DHT22;3281;47.658;9.166;2024-01-30T02:07:42;3.20;1.00
6496;DHT22;3281;47.658;9.166;2024-01-30T02:10:10;3.10;1.00
6496;DHT22;3281;47.658;9.166;2024-01-30T02:12:36;3.10;1.00
6496;DHT22;3281;47.658;9.166;2024-01-30T02:15:04;3.00;1.00
6496;DHT22;3281;47.658;9.166;2024-01-30T02:17:32;2.90;1.00
6496;DHT22;3281;47.658;9.166;2024-01-30T02:19:59;2.90;1.00
6496;DHT22;3281;47.658;9.166;2024-01-30T02:22:27;2.90;1.00
6496;DHT22;3281;47.658;9.166;2024-01-30T02:24:54;3.00;1.00
6496;DHT22;3281;47.658;9.166;2024-01-30T02:27:21;3.00;1.00
6496;DHT22;3281;47.658;9.166;2024-01-30T02:29:48;3.10;1.00
6496;DHT22;3281;47.658;9.166;2024-01-30T02:32:14;3.10;1.00
6496;DHT22;3281;47.658;9.166;2024-01-30T02:34:41;3.10;1.00
6496;DHT22;3281;47.658;9.166;2024-01-30T02:37:08;3.10;1.00
6496;DHT22;3281;47.658;9.166;2024-01-30T02:39:36;3.00;1.00
6496;DHT22;3281;47.658;9.166;2024-01-30T02:42:05;2.90;1.00
6496;DHT22;3281;47.658;9.166;2024-01-30T02:44:31;2.80;1.00
6496;DHT22;3281;47.658;9.166;2024-01-30T02:46:58;2.70;1.00
6496;DHT22;3281;47.658;9.166;2024-01-30T02:49:25;2.70;1.00
6496;DHT22;3281;47.658;9.166;2024-01-30T02:51:52;2.70;1.00
6496;DHT22;3281;47.658;9.166;2024-01-30T02:54:19;2.70;1.00
6496;DHT22;3281;47.658;9.166;2024-01-30T02:56:47;2.70;1.00
6496;DHT22;3281;47.658;9.166;2024-01-30T02:59:14;2.70;1.00
6496;DHT22;3281;47.658;9.166;2024-01-30T03:01:44;2.80;1.00
6496;DHT22;3281;47.658;9.166;2024-01-30T03:04:11;2.70;1.00
6496;DHT22;3281;47.658;9.166;2024-01-30T03:06:38;2.60;1.00
6496;DHT22;3281;47.658;9.166;2024-01-30T03:09:05;2.70;1.00
6496;DHT22;3281;47.658;9.166;2024-01-30T03:11:31;2.70;1.00
6496;DHT22;3281;47.658;9.166;2024-01-30T03:13:59;2.70;1.00
6496;DHT22;3281;47.658;9.166;2024-01-30T03:16:26;2.70;1.00
6496;DHT22;3281;47.658;9.166;2024-01-30T03:18:53;2.70;1.00
6496;DHT22;3281;47.658;9.166;2024-01-30T03:21:20;2.70;1.00
6496;DHT22;3281;47.658;9.166;2024-01-30T03:23:47;2.70;1.00
6496;DHT22;3281;47.658;9.166;2024-01-30T03:26:13;2.70;1.00
6496;DHT22;3281;47.658;9.166;2024-01-30T03:28:40;2.70;1.00
6496;DHT22;3281;47.658;9.166;2024-01-30T03:31:08;2.80;1.00
6496;DHT22;3281;47.658;9.166;2024-01-30T03:33:36;2.80;1.00
6496;DHT22;3281;47.658;9.166;2024-01-30T03:36:04;2.80;1.00
6496;DHT22;3281;47.658;9.166;2024-01-30T03:38:31;2.70;1.00
6496;DHT22;3281;47.658;9.166;2024-01-30T03:40:59;2.70;1.00
6496;DHT22;3281;47.658;9.166;2024-01-30T03:43:25;2.80;1.00
6496;DHT22;3281;47.658;9.166;2024-01-30T03:45:52;2.70;1.00
6496;DHT22;3281;47.658;9.166;2024-01-30T03:48:21;2.70;1.00
6496;DHT22;3281;47.658;9.166;2024-01-30T03:50:48;2.70;1.00
6496;DHT22;3281;47.658;9.166;2024-01-30T03:53:14;2.70;1.00
6496;DHT22;3281;47.658;9.166;2024-01-30T03:55:41;2.60;1.00
6496;DHT22;3281;47.658;9.166;2024-01-30T03:58:08;2.70;1.00
6496;DHT22;3281;47.658;9.166;2024-01-30T04:00:35;2.70;1.00
6496;DHT22;3281;47.658;9.166;2024-01-30T04:03:01;2.70;1.00
6496;DHT22;3281;47.658;9.166;2024-01-30T04:05:29;2.70;1.00
6496;DHT22;3281;47.658;9.166;2024-01-30T04:07:56;2.70;1.00
6496;DHT22;3281;47.658;9.166;2024-01-30T04:10:23;2.60;1.00
6496;DHT22;3281;47.658;9.166;2024-01-30T04:12:50;2.70;1.00
6496;DHT22;3281;47.658;9.166;2024-01-30T04:15:17;2.70;1.00
6496;DHT22;3281;47.658;9.166;2024-01-30T04:17:43;2.70;1.00
6496;DHT22;3281;47.658;9.166;2024-01-30T04:20:13;2.60;1.00
6496;DHT22;3281;47.658;9.166;2024-01-30T04:22:43;2.70;1.00
6496;DHT22;3281;47.658;9.166;2024-01-30T04:25:09;2.80;1.00
6496;DHT22;3281;47.658;9.166;2024-01-30T04:27:36;2.80;1.00
6496;DHT22;3281;47.658;9.166;2024-01-30T04:30:03;2.70;1.00
6496;DHT22;3281;47.658;9.166;2024-01-30T04:32:31;2.60;1.00
6496;DHT22;3281;47.658;9.166;2024-01-30T04:34:58;2.70;1.00
6496;DHT22;3281;47.658;9.166;2024-01-30T04:37:25;2.60;1.00
6496;DHT22;3281;47.658;9.166;2024-01-30T04:39:53;2.60;1.00
6496;DHT22;3281;47.658;9.166;2024-01-30T04:42:20;2.60;1.00
6496;DHT22;3281;47.658;9.166;2024-01-30T04:44:46;2.70;1.00
6496;DHT22;3281;47.658;9.166;2024-01-30T04:47:13;2.80;1.00
6496;DHT22;3281;47.658;9.166;2024-01-30T04:49:40;2.80;1.00
6496;DHT22;3281;47.658;9.166;2024-01-30T04:52:07;2.70;1.00
6496;DHT22;3281;47.658;9.166;2024-01-30T04:54:34;2.70;1.00
6496;DHT22;3281;47.658;9.166;2024-01-30T04:57:03;2.60;1.00
6496;DHT22;3281;47.658;9.166;2024-01-30T04:59:31;2.60;1.00
6496;DHT22;3281;47.658;9.166;2024-01-30T05:01:59;2.30;1.00
6496;DHT22;3281;47.658;9.166;2024-01-30T05:04:25;2.30;1.00
6496;DHT22;3281;47.658;9.166;2024-01-30T05:06:52;2.30;1.00
6496;DHT22;3281;47.658;9.166;2024-01-30T05:09:19;2.30;1.00
6496;DHT22;3281;47.658;9.166;2024-01-30T05:11:46;2.30;1.00
6496;DHT22;3281;47.658;9.166;2024-01-30T05:14:14;2.30;1.00
6496;DHT22;3281;47.658;9.166;2024-01-30T05:16:41;2.30;1.00
6496;DHT22;3281;47.658;9.166;2024-01-30T05:19:12;2.30;1.00
6496;DHT22;3281;47.658;9.166;2024-01-30T05:21:39;2.30;1.00
6496;DHT22;3281;47.658;9.166;2024-01-30T05:24:06;2.30;1.00
6496;DHT22;3281;47.658;9.166;2024-01-30T05:26:35;2.40;1.00
6496;DHT22;3281;47.658;9.166;2024-01-30T05:29:02;2.40;1.00
6496;DHT22;3281;47.658;9.166;2024-01-30T05:31:30;2.40;1.00
6496;DHT22;3281;47.658;9.166;2024-01-30T05:33:56;2.50;1.00
6496;DHT22;3281;47.658;9.166;2024-01-30T05:36:23;2.50;1.00
6496;DHT22;3281;47.658;9.166;2024-01-30T05:38:50;2.50;1.00
6496;DHT22;3281;47.658;9.166;2024-01-30T05:41:16;2.40;1.00
6496;DHT22;3281;47.658;9.166;2024-01-30T05:43:43;2.30;1.00
6496;DHT22;3281;47.658;9.166;2024-01-30T05:46:10;2.30;1.00
6496;DHT22;3281;47.658;9.166;2024-01-30T05:48:38;2.40;1.00
6496;DHT22;3281;47.658;9.166;2024-01-30T05:51:06;2.50;1.00
6496;DHT22;3281;47.658;9.166;2024-01-30T05:53:33;2.60;1.00
6496;DHT22;3281;47.658;9.166;2024-01-30T05:56:01;2.60;1.00
6496;DHT22;3281;47.658;9.166;2024-01-30T05:58:28;2.60;1.00
6496;DHT22;3281;47.658;9.166;2024-01-30T06:00:56;2.60;1.00
6496;DHT22;3281;47.658;9.166;2024-01-30T06:03:23;2.70;1.00
6496;DHT22;3281;47.658;9.166;2024-01-30T06:05:51;2.70;1.00
6496;DHT22;3281;47.658;9.166;2024-01-30T06:08:18;3.00;1.00
6496;DHT22;3281;47.658;9.166;2024-01-30T06:10:44;2.70;1.00
6496;DHT22;3281;47.658;9.166;2024-01-30T06:13:11;2.70;1.00
6496;DHT22;3281;47.658;9.166;2024-01-30T06:15:37;2.70;1.00
6496;DHT22;3281;47.658;9.166;2024-01-30T06:18:04;2.60;1.00
6496;DHT22;3281;47.658;9.166;2024-01-30T06:20:31;2.50;1.00
6496;DHT22;3281;47.658;9.166;2024-01-30T06:22:59;2.50;1.00
6496;DHT22;3281;47.658;9.166;2024-01-30T06:25:26;2.50;1.00
6496;DHT22;3281;47.658;9.166;2024-01-30T06:27:53;2.60;1.00
6496;DHT22;3281;47.658;9.166;2024-01-30T06:30:19;2.60;1.00
6496;DHT22;3281;47.658;9.166;2024-01-30T06:32:46;2.50;1.00
6496;DHT22;3281;47.658;9.166;2024-01-30T06:35:13;2.60;1.00
6496;DHT22;3281;47.658;9.166;2024-01-30T06:37:39;2.60;1.00
6496;DHT22;3281;47.658;9.166;2024-01-30T06:40:08;2.70;1.00
6496;DHT22;3281;47.658;9.166;2024-01-30T06:42:35;2.60;1.00
6496;DHT22;3281;47.658;9.166;2024-01-30T06:45:02;2.60;1.00
6496;DHT22;3281;47.658;9.166;2024-01-30T06:47:29;2.60;1.00
6496;DHT22;3281;47.658;9.166;2024-01-30T06:49:56;2.60;1.00
6496;DHT22;3281;47.658;9.166;2024-01-30T06:52:23;2.60;1.00
6496;DHT22;3281;47.658;9.166;2024-01-30T06:54:49;2.60;1.00
6496;DHT22;3281;47.658;9.166;2024-01-30T06:57:18;2.60;1.00
6496;DHT22;3281;47.658;9.166;2024-01-30T06:59:44;2.50;1.00
6496;DHT22;3281;47.658;9.166;2024-01-30T07:02:11;2.50;1.00
6496;DHT22;3281;47.658;9.166;2024-01-30T07:04:38;2.50;1.00
6496;DHT22;3281;47.658;9.166;2024-01-30T07:07:05;2.50;1.00
6496;DHT22;3281;47.658;9.166;2024-01-30T07:09:37;2.50;1.00
6496;DHT22;3281;47.658;9.166;2024-01-30T07:12:04;2.50;1.00
6496;DHT22;3281;47.658;9.166;2024-01-30T07:14:32;2.50;1.00
6496;DHT22;3281;47.658;9.166;2024-01-30T07:16:59;2.60;1.00
6496;DHT22;3281;47.658;9.166;2024-01-30T07:19:26;2.70;1.00
6496;DHT22;3281;47.658;9.166;2024-01-30T07:21:53;2.60;1.00
6496;DHT22;3281;47.658;9.166;2024-01-30T07:24:19;2.70;1.00
6496;DHT22;3281;47.658;9.166;2024-01-30T07:26:46;2.80;1.00
6496;DHT22;3281;47.658;9.166;2024-01-30T07:29:13;2.80;1.00
6496;DHT22;3281;47.658;9.166;2024-01-30T07:31:41;2.90;1.00
6496;DHT22;3281;47.658;9.166;2024-01-30T07:34:08;2.90;1.00
6496;DHT22;3281;47.658;9.166;2024-01-30T07:36:35;2.90;1.00
6496;DHT22;3281;47.658;9.166;2024-01-30T07:39:01;3.00;1.00
6496;DHT22;3281;47.658;9.166;2024-01-30T07:41:28;3.00;1.00
6496;DHT22;3281;47.658;9.166;2024-01-30T07:43:55;3.00;1.00
6496;DHT22;3281;47.658;9.166;2024-01-30T07:46:21;3.00;1.00
6496;DHT22;3281;47.658;9.166;2024-01-30T07:48:51;3.00;1.00
6496;DHT22;3281;47.658;9.166;2024-01-30T07:51:18;3.00;1.00
6496;DHT22;3281;47.658;9.166;2024-01-30T07:53:45;3.00;1.00
6496;DHT22;3281;47.658;9.166;2024-01-30T07:56:12;3.00;1.00
6496;DHT22;3281;47.658;9.166;2024-01-30T07:58:39;3.00;1.00
6496;DHT22;3281;47.658;9.166;2024-01-30T08:01:05;2.90;1.00
6496;DHT22;3281;47.658;9.166;2024-01-30T08:03:32;2.80;1.00
6496;DHT22;3281;47.658;9.166;2024-01-30T08:06:01;2.80;1.00
6496;DHT22;3281;47.658;9.166;2024-01-30T08:08:27;2.80;1.00
6496;DHT22;3281;47.658;9.166;2024-01-30T08:10:54;2.80;1.00
6496;DHT22;3281;47.658;9.166;2024-01-30T08:13:21;2.80;1.00
6496;DHT22;3281;47.658;9.166;2024-01-30T08:15:47;2.90;1.00
6496;DHT22;3281;47.658;9.166;2024-01-30T08:18:14;2.90;1.00
6496;DHT22;3281;47.658;9.166;2024-01-30T08:20:41;2.90;1.00
6496;DHT22;3281;47.658;9.166;2024-01-30T08:23:09;2.90;1.00
6496;DHT22;3281;47.658;9.166;2024-01-30T08:25:36;2.90;1.00
6496;DHT22;3281;47.658;9.166;2024-01-30T08:28:03;2.80;1.00
6496;DHT22;3281;47.658;9.166;2024-01-30T08:30:30;2.70;1.00
6496;DHT22;3281;47.658;9.166;2024-01-30T08:32:57;2.70;1.00
6496;DHT22;3281;47.658;9.166;2024-01-30T08:35:24;2.70;1.00
6496;DHT22;3281;47.658;9.166;2024-01-30T08:37:50;2.70;1.00
6496;DHT22;3281;47.658;9.166;2024-01-30T08:40:18;2.60;1.00
6496;DHT22;3281;47.658;9.166;2024-01-30T08:42:45;2.60;1.00
6496;DHT22;3281;47.658;9.166;2024-01-30T08:45:12;2.60;1.00
6496;DHT22;3281;47.658;9.166;2024-01-30T08:47:40;2.70;1.00
6496;DHT22;3281;47.658;9.166;2024-01-30T08:50:07;2.70;1.00
6496;DHT22;3281;47.658;9.166;2024-01-30T08:52:34;2.80;1.00
6496;DHT22;3281;47.658;9.166;2024-01-30T08:55:01;3.00;1.00
6496;DHT22;3281;47.658;9.166;2024-01-30T08:57:30;3.10;1.00
6496;DHT22;3281;47.658;9.166;2024-01-30T08:59:56;3.20;1.00
6496;DHT22;3281;47.658;9.166;2024-01-30T09:02:23;3.20;1.00
6496;DHT22;3281;47.658;9.166;2024-01-30T09:04:50;3.20;1.00
6496;DHT22;3281;47.658;9.166;2024-01-30T09:07:16;3.20;1.00
6496;DHT22;3281;47.658;9.166;2024-01-30T09:09:43;3.10;1.00
6496;DHT22;3281;47.658;9.166;2024-01-30T09:12:10;3.20;1.00
6496;DHT22;3281;47.658;9.166;2024-01-30T09:14:39;3.40;1.00
6496;DHT22;3281;47.658;9.166;2024-01-30T09:17:06;3.50;1.00
6496;DHT22;3281;47.658;9.166;2024-01-30T09:19:33;3.60;1.00
6496;DHT22;3281;47.658;9.166;2024-01-30T09:22:00;3.80;1.00
6496;DHT22;3281;47.658;9.166;2024-01-30T09:24:27;3.90;1.00
6496;DHT22;3281;47.658;9.166;2024-01-30T09:26:53;3.90;1.00
6496;DHT22;3281;47.658;9.166;2024-01-30T09:29:21;4.00;1.00
6496;DHT22;3281;47.658;9.166;2024-01-30T09:31:49;4.10;1.00
6496;DHT22;3281;47.658;9.166;2024-01-30T09:34:16;4.10;1.00
6496;DHT22;3281;47.658;9.166;2024-01-30T09:36:42;4.20;1.00
6496;DHT22;3281;47.658;9.166;2024-01-30T09:39:09;4.20;1.00
6496;DHT22;3281;47.658;9.166;2024-01-30T09:41:43;4.30;1.00
6496;DHT22;3281;47.658;9.166;2024-01-30T09:44:11;4.20;1.00
6496;DHT22;3281;47.658;9.166;2024-01-30T09:46:39;4.20;1.00
6496;DHT22;3281;47.658;9.166;2024-01-30T09:49:08;4.10;1.00
6496;DHT22;3281;47.658;9.166;2024-01-30T09:51:35;4.20;1.00
6496;DHT22;3281;47.658;9.166;2024-01-30T09:54:03;4.10;1.00
6496;DHT22;3281;47.658;9.166;2024-01-30T09:56:29;4.10;1.00
6496;DHT22;3281;47.658;9.166;2024-01-30T09:58:56;4.10;1.00
6496;DHT22;3281;47.658;9.166;2024-01-30T10:01:23;4.10;1.00
6496;DHT22;3281;47.658;9.166;2024-01-30T10:03:50;4.10;1.00
6496;DHT22;3281;47.658;9.166;2024-01-30T10:06:19;4.10;1.00
6496;DHT22;3281;47.658;9.166;2024-01-30T10:08:47;4.00;1.00
6496;DHT22;3281;47.658;9.166;2024-01-30T10:11:14;3.90;1.00
6496;DHT22;3281;47.658;9.166;2024-01-30T10:13:41;3.90;1.00
6496;DHT22;3281;47.658;9.166;2024-01-30T10:16:08;3.90;1.00
6496;DHT22;3281;47.658;9.166;2024-01-30T10:18:34;4.00;1.00
6496;DHT22;3281;47.658;9.166;2024-01-30T10:21:01;4.10;1.00
6496;DHT22;3281;47.658;9.166;2024-01-30T10:23:29;4.20;1.00
6496;DHT22;3281;47.658;9.166;2024-01-30T10:25:57;4.20;1.00
6496;DHT22;3281;47.658;9.166;2024-01-30T10:28:27;4.20;1.00
6496;DHT22;3281;47.658;9.166;2024-01-30T10:30:58;4.20;1.00
6496;DHT22;3281;47.658;9.166;2024-01-30T10:33:26;4.40;1.00
6496;DHT22;3281;47.658;9.166;2024-01-30T10:35:55;4.40;1.00
6496;DHT22;3281;47.658;9.166;2024-01-30T10:38:25;4.30;1.00
6496;DHT22;3281;47.658;9.166;2024-01-30T10:40:56;4.40;1.00
6496;DHT22;3281;47.658;9.166;2024-01-30T10:43:33;4.40;1.00
6496;DHT22;3281;47.658;9.166;2024-01-30T10:46:11;4.50;1.00
6496;DHT22;3281;47.658;9.166;2024-01-30T10:48:43;4.60;1.00
6496;DHT22;3281;47.658;9.166;2024-01-30T10:51:10;4.60;1.00
6496;DHT22;3281;47.658;9.166;2024-01-30T10:53:38;4.60;1.00
6496;DHT22;3281;47.658;9.166;2024-01-30T10:56:08;4.80;1.00
6496;DHT22;3281;47.658;9.166;2024-01-30T10:58:36;4.90;1.00
6496;DHT22;3281;47.658;9.166;2024-01-30T11:01:04;4.90;1.00
6496;DHT22;3281;47.658;9.166;2024-01-30T11:03:30;4.90;1.00
6496;DHT22;3281;47.658;9.166;2024-01-30T11:06:00;5.00;1.00
6496;DHT22;3281;47.658;9.166;2024-01-30T11:08:27;5.20;1.00
6496;DHT22;3281;47.658;9.166;2024-01-30T11:10:56;5.30;1.00
6496;DHT22;3281;47.658;9.166;2024-01-30T11:13:28;5.40;1.00
6496;DHT22;3281;47.658;9.166;2024-01-30T11:15:55;5.50;1.00
6496;DHT22;3281;47.658;9.166;2024-01-30T11:18:26;5.70;1.00
6496;DHT22;3281;47.658;9.166;2024-01-30T11:20:52;5.80;1.00
6496;DHT22;3281;47.658;9.166;2024-01-30T11:23:22;5.90;1.00
6496;DHT22;3281;47.658;9.166;2024-01-30T11:25:49;6.10;1.00
6496;DHT22;3281;47.658;9.166;2024-01-30T11:28:18;6.10;1.00
6496;DHT22;3281;47.658;9.166;2024-01-30T11:30:48;6.10;1.00
6496;DHT22;3281;47.658;9.166;2024-01-30T11:33:27;6.20;1.00
6496;DHT22;3281;47.658;9.166;2024-01-30T11:35:57;6.20;1.00
6496;DHT22;3281;47.658;9.166;2024-01-30T11:38:25;6.20;1.00
6496;DHT22;3281;47.658;9.166;2024-01-30T11:40:53;6.20;1.00
6496;DHT22;3281;47.658;9.166;2024-01-30T11:43:20;6.20;1.00
6496;DHT22;3281;47.658;9.166;2024-01-30T11:45:48;6.10;1.00
6496;DHT22;3281;47.658;9.166;2024-01-30T11:48:15;6.20;1.00
6496;DHT22;3281;47.658;9.166;2024-01-30T11:50:43;6.20;1.00
6496;DHT22;3281;47.658;9.166;2024-01-30T11:53:10;5.80;1.00
6496;DHT22;3281;47.658;9.166;2024-01-30T11:55:37;6.30;1.00
6496;DHT22;3281;47.658;9.166;2024-01-30T11:58:04;6.40;1.00
6496;DHT22;3281;47.658;9.166;2024-01-30T12:00:31;6.50;1.00
6496;DHT22;3281;47.658;9.166;2024-01-30T12:03:00;6.50;1.00
6496;DHT22;3281;47.658;9.166;2024-01-30T12:05:27;7.10;1.00
6496;DHT22;3281;47.658;9.166;2024-01-30T12:07:54;8.40;1.00
6496;DHT22;3281;47.658;9.166;2024-01-30T12:10:24;9.60;1.00
6496;DHT22;3281;47.658;9.166;2024-01-30T12:12:51;10.60;1.00
6496;DHT22;3281;47.658;9.166;2024-01-30T12:15:19;11.40;1.00
6496;DHT22;3281;47.658;9.166;2024-01-30T12:17:47;11.40;1.00
6496;DHT22;3281;47.658;9.166;2024-01-30T12:20:18;11.40;1.00
6496;DHT22;3281;47.658;9.166;2024-01-30T12:22:46;11.90;1.00
6496;DHT22;3281;47.658;9.166;2024-01-30T12:25:14;12.30;1.00
6496;DHT22;3281;47.658;9.166;2024-01-30T12:27:43;12.60;1.00
6496;DHT22;3281;47.658;9.166;2024-01-30T12:30:12;12.30;1.00
6496;DHT22;3281;47.658;9.166;2024-01-30T12:32:40;11.40;1.00
6496;DHT22;3281;47.658;9.166;2024-01-30T12:35:07;10.70;1.00
6496;DHT22;3281;47.658;9.166;2024-01-30T12:37:35;10.20;1.00
6496;DHT22;3281;47.658;9.166;2024-01-30T12:40:03;9.80;1.00
6496;DHT22;3281;47.658;9.166;2024-01-30T12:42:31;9.50;1.00
6496;DHT22;3281;47.658;9.166;2024-01-30T12:44:58;9.30;1.00
6496;DHT22;3281;47.658;9.166;2024-01-30T12:47:24;9.20;1.00
6496;DHT22;3281;47.658;9.166;2024-01-30T12:49:51;8.90;1.00
6496;DHT22;3281;47.658;9.166;2024-01-30T12:52:19;8.60;1.00
6496;DHT22;3281;47.658;9.166;2024-01-30T12:54:47;8.40;1.00
6496;DHT22;3281;47.658;9.166;2024-01-30T12:57:14;8.20;1.00
6496;DHT22;3281;47.658;9.166;2024-01-30T12:59:41;8.10;1.00
6496;DHT22;3281;47.658;9.166;2024-01-30T13:02:08;8.30;1.00
6496;DHT22;3281;47.658;9.166;2024-01-30T13:04:35;8.30;1.00
6496;DHT22;3281;47.658;9.166;2024-01-30T13:07:02;8.30;1.00
6496;DHT22;3281;47.658;9.166;2024-01-30T13:09:30;8.30;1.00
6496;DHT22;3281;47.658;9.166;2024-01-30T13:11:58;8.60;1.00
6496;DHT22;3281;47.658;9.166;2024-01-30T13:14:25;8.90;1.00
6496;DHT22;3281;47.658;9.166;2024-01-30T13:16:52;8.90;1.00
6496;DHT22;3281;47.658;9.166;2024-01-30T13:19:19;9.20;1.00
6496;DHT22;3281;47.658;9.166;2024-01-30T13:21:45;9.30;1.00
6496;DHT22;3281;47.658;9.166;2024-01-30T13:24:13;9.60;1.00
6496;DHT22;3281;47.658;9.166;2024-01-30T13:26:42;9.80;1.00
6496;DHT22;3281;47.658;9.166;2024-01-30T13:29:10;9.60;1.00
6496;DHT22;3281;47.658;9.166;2024-01-30T13:31:37;9.30;1.00
6496;DHT22;3281;47.658;9.166;2024-01-30T13:34:04;9.00;1.00
6496;DHT22;3281;47.658;9.166;2024-01-30T13:36:32;8.80;1.00
6496;DHT22;3281;47.658;9.166;2024-01-30T13:38:59;8.50;1.00
6496;DHT22;3281;47.658;9.166;2024-01-30T13:41:26;8.50;1.00
6496;DHT22;3281;47.658;9.166;2024-01-30T13:43:52;8.50;1.00
6496;DHT22;3281;47.658;9.166;2024-01-30T13:46:20;8.70;1.00
6496;DHT22;3281;47.658;9.166;2024-01-30T13:48:47;8.80;1.00
6496;DHT22;3281;47.658;9.166;2024-01-30T13:51:14;9.10;1.00
6496;DHT22;3281;47.658;9.166;2024-01-30T13:53:42;9.50;1.00
6496;DHT22;3281;47.658;9.166;2024-01-30T13:56:09;9.70;1.00
6496;DHT22;3281;47.658;9.166;2024-01-30T13:58:36;10.00;1.00
6496;DHT22;3281;47.658;9.166;2024-01-30T14:01:02;9.70;1.00
6496;DHT22;3281;47.658;9.166;2024-01-30T14:03:31;9.80;1.00
6496;DHT22;3281;47.658;9.166;2024-01-30T14:05:58;9.90;1.00
6496;DHT22;3281;47.658;9.166;2024-01-30T14:08:25;9.90;1.00
6496;DHT22;3281;47.658;9.166;2024-01-30T14:10:53;10.50;1.00
6496;DHT22;3281;47.658;9.166;2024-01-30T14:13:20;10.50;1.00
6496;DHT22;3281;47.658;9.166;2024-01-30T14:15:48;10.10;1.00
6496;DHT22;3281;47.658;9.166;2024-01-30T14:18:14;10.00;1.00
6496;DHT22;3281;47.658;9.166;2024-01-30T14:20:43;9.70;1.00
6496;DHT22;3281;47.658;9.166;2024-01-30T14:23:10;9.30;1.00
6496;DHT22;3281;47.658;9.166;2024-01-30T14:25:36;8.90;1.00
6496;DHT22;3281;47.658;9.166;2024-01-30T14:28:03;8.70;1.00
6496;DHT22;3281;47.658;9.166;2024-01-30T14:30:30;8.40;1.00
6496;DHT22;3281;47.658;9.166;2024-01-30T14:32:57;8.20;1.00
6496;DHT22;3281;47.658;9.166;2024-01-30T14:35:24;8.10;1.00
6496;DHT22;3281;47.658;9.166;2024-01-30T14:37:52;8.10;1.00
6496;DHT22;3281;47.658;9.166;2024-01-30T14:40:19;8.10;1.00
6496;DHT22;3281;47.658;9.166;2024-01-30T14:42:45;8.00;1.00
6496;DHT22;3281;47.658;9.166;2024-01-30T14:45:12;7.90;1.00
6496;DHT22;3281;47.658;9.166;2024-01-30T14:47:39;7.60;1.00
6496;DHT22;3281;47.658;9.166;2024-01-30T14:50:06;7.10;1.00
6496;DHT22;3281;47.658;9.166;2024-01-30T14:52:33;7.00;1.00
6496;DHT22;3281;47.658;9.166;2024-01-30T14:55:01;6.90;1.00
6496;DHT22;3281;47.658;9.166;2024-01-30T14:57:28;6.80;1.00
6496;DHT22;3281;47.658;9.166;2024-01-30T14:59:55;6.70;1.00
6496;DHT22;3281;47.658;9.166;2024-01-30T15:02:22;6.70;1.00
6496;DHT22;3281;47.658;9.166;2024-01-30T15:04:48;6.60;1.00
6496;DHT22;3281;47.658;9.166;2024-01-30T15:07:15;6.50;1.00
6496;DHT22;3281;47.658;9.166;2024-01-30T15:09:42;6.60;1.00
6496;DHT22;3281;47.658;9.166;2024-01-30T15:12:10;6.50;1.00
6496;DHT22;3281;47.658;9.166;2024-01-30T15:14:37;6.40;1.00
6496;DHT22;3281;47.658;9.166;2024-01-30T15:17:04;6.40;1.00
6496;DHT22;3281;47.658;9.166;2024-01-30T15:19:30;6.30;1.00
6496;DHT22;3281;47.658;9.166;2024-01-30T15:21:57;6.30;1.00
6496;DHT22;3281;47.658;9.166;2024-01-30T15:24:24;6.20;1.00
6496;DHT22;3281;47.658;9.166;2024-01-30T15:26:51;6.10;1.00
6496;DHT22;3281;47.658;9.166;2024-01-30T15:29:19;6.00;1.00
6496;DHT22;3281;47.658;9.166;2024-01-30T15:31:48;6.00;1.00
6496;DHT22;3281;47.658;9.166;2024-01-30T15:34:15;6.00;1.00
6496;DHT22;3281;47.658;9.166;2024-01-30T15:36:41;5.90;1.00
6496;DHT22;3281;47.658;9.166;2024-01-30T15:39:08;5.80;1.00
6496;DHT22;3281;47.658;9.166;2024-01-30T15:41:36;5.80;1.00
6496;DHT22;3281;47.658;9.166;2024-01-30T15:44:03;5.80;1.00
6496;DHT22;3281;47.658;9.166;2024-01-30T15:46:31;5.70;1.00
6496;DHT22;3281;47.658;9.166;2024-01-30T15:48:58;5.70;1.00
6496;DHT22;3281;47.658;9.166;2024-01-30T15:51:25;5.80;1.00
6496;DHT22;3281;47.658;9.166;2024-01-30T15:53:52;5.70;1.00
6496;DHT22;3281;47.658;9.166;2024-01-30T15:56:19;5.70;1.00
6496;DHT22;3281;47.658;9.166;2024-01-30T15:58:46;5.70;1.00
6496;DHT22;3281;47.658;9.166;2024-01-30T16:01:15;5.70;1.00
6496;DHT22;3281;47.658;9.166;2024-01-30T16:03:43;5.70;1.00
6496;DHT22;3281;47.658;9.166;2024-01-30T16:06:11;5.70;1.00
6496;DHT22;3281;47.658;9.166;2024-01-30T16:08:37;5.70;1.00
6496;DHT22;3281;47.658;9.166;2024-01-30T16:11:04;5.60;1.00
6496;DHT22;3281;47.658;9.166;2024-01-30T16:13:31;5.60;1.00
6496;DHT22;3281;47.658;9.166;2024-01-30T16:15:57;5.60;1.00
6496;DHT22;3281;47.658;9.166;2024-01-30T16:18:24;5.60;1.00
6496;DHT22;3281;47.658;9.166;2024-01-30T16:20:53;5.60;1.00
6496;DHT22;3281;47.658;9.166;2024-01-30T16:23:20;5.50;1.00
6496;DHT22;3281;47.658;9.166;2024-01-30T16:25:46;5.50;1.00
6496;DHT22;3281;47.658;9.166;2024-01-30T16:28:13;5.50;1.00
6496;DHT22;3281;47.658;9.166;2024-01-30T16:30:40;5.40;1.00
6496;DHT22;3281;47.658;9.166;2024-01-30T16:33:06;5.40;1.00